EPWA/WAW METAR and TAF weather

Enter ICAO airport designator
Station Type Date Time Source
EPWA METAR 2020/07/12 05:30 UTC NOAA

EPWA 120530Z 29003KT CAVOK 13/11 Q1023 NOSIG


Station Type Date Time Source
EPWA Decoded METAR 2020/07/12 05:30 UTC NOAA

Warszawa-Okecie, Poland (EPWA) 52-10N 020-58E 107M
Jul 12, 2020 - 01:30 AM EDT / 2020.07.12 0530 UTC
Wind: from the WNW (290 degrees) at 3 MPH (3 KT):0
Visibility: greater than 7 mile(s):0
Temperature: 55 F (13 C)
Dew Point: 51 F (11 C)
Relative Humidity: 87%
Pressure (altimeter): 30.21 in. Hg (1023 hPa)
ob: EPWA 120530Z 29003KT CAVOK 13/11 Q1023 NOSIG
cycle: 5

Station Type Date Time Source
EPWA TAF 2020/07/12 06:37 UTC NOAA

TAF EPWA 120530Z 1206/1306 VRB02KT CAVOK
BECMG 1208/1210 30010KT PROB40
TEMPO 1210/1216 SCT035TCU
BECMG 1220/1222 VRB02KT

Example: see airport list